Lance Creek, Wyoming
Current Conditions -  °F | °C
As of 3:53 AM on Sunday 21 Dec 2014 (Local Time) from KDGW Reporting Station
Clear Clear  
Wind Chill: 29°   Ceiling: Unl
Heat Index: 33°   Visibility: 10mi
Dew Point: 23°   Wind: 5mph
Humidity: 66%   Direction: 240°WSW
Pressure: 29.68"   Gusts: NA
Location:  43.03°N, 104.64°W
Report Text: KDGW 211053Z AUTO 24004KT 10SM CLR 01/M05 A2968 RMK AO2 SLP057 T00061050
Loading
Personal Weather Stations






























Interactive Weather Map New forecast layout! Learn more

10-Day Weather Forecast

Advertisements
Track Severe Weather on mobile